YM Moderation — H9EW — position and weather

sailwx.info

Track history (hours):
 
Tides and Currents Weather Stations Pressure Air Temp Water Temp Dewpoint Dewpoint Depression Visibility Wind Speed Wind Dir Waves Ship Positions

YM Moderation

Last reported at 2018-Jan-12 01:03 UTC. Time now 2018-Jan-21 06:57 UTC.
Position N 01°18' E 103°19'.
Warning: this ship's position is 9 days out of date.

Length 293 m; draft 11.7 m.

Type: Cargo ship. MMSI: 371633000.

Date/timePositionNaut miles runAvg speedWind from/ knotsBaromVisibWave heightAir tempDewpointWater temp
2018-Jan-12 01:03N 01°18' E 103°19'219.5
2018-Jan-12 00:57N 01°17' E 103°21'919.1
2018-Jan-12 00:29N 01°12' E 103°28'817.4
2018-Jan-12 00:00N 01°12' E 103°37'4 8.4
2018-Jan-11 23:30N 01°13' E 103°41'510.0
2018-Jan-11 23:00N 01°16' E 103°45'2 4.3
2018-Jan-11 22:30N 01°16' E 103°47'0 0.6
2018-Jan-11 21:56N 01°16' E 103°47'0 0.0
2018-Jan-11 21:26N 01°16' E 103°47'0 0.0
2018-Jan-11 20:50N 01°16' E 103°47'0 0.0
2018-Jan-11 20:26N 01°16' E 103°47'0 0.0
2018-Jan-11 19:50N 01°16' E 103°47'0 0.0
2018-Jan-11 19:29N 01°16' E 103°47'0 0.0
2018-Jan-11 18:56N 01°16' E 103°47'0 0.0
2018-Jan-11 18:29N 01°16' E 103°47'0 0.0
2018-Jan-11 17:56N 01°16' E 103°47'0 0.0
2018-Jan-11 17:29N 01°16' E 103°47'0 0.0
2018-Jan-11 16:56N 01°16' E 103°47'0 0.0
2018-Jan-11 16:26N 01°16' E 103°47'0 0.0
2018-Jan-11 15:56N 01°16' E 103°47'0 0.0
2018-Jan-11 15:26N 01°16' E 103°47'0 0.0
2018-Jan-11 14:56N 01°16' E 103°47'0 0.1
2018-Jan-11 14:29N 01°16' E 103°47'0 0.1
2018-Jan-11 13:53N 01°16' E 103°47'0 0.0
2018-Jan-11 13:29N 01°16' E 103°47'0 0.0
2018-Jan-11 12:50N 01°16' E 103°47'0 0.0
2018-Jan-11 12:26N 01°16' E 103°47'0 0.0
2018-Jan-11 11:53N 01°16' E 103°47'0 0.0
2018-Jan-11 11:11N 01°16' E 103°47'0 0.0
2018-Jan-11 10:56N 01°16' E 103°47'0 0.0
2018-Jan-11 10:26N 01°16' E 103°47'0 0.0
2018-Jan-11 09:53N 01°16' E 103°47'0 0.0
2018-Jan-11 09:29N 01°16' E 103°47'0 0.0
2018-Jan-11 08:56N 01°16' E 103°47'0 0.0
2018-Jan-11 08:29N 01°16' E 103°47'0 0.0
2018-Jan-11 07:53N 01°16' E 103°47'0 0.0
2018-Jan-11 07:29N 01°16' E 103°47'0 0.0
2018-Jan-11 06:56N 01°16' E 103°47'0 0.0
2018-Jan-11 06:29N 01°16' E 103°47'0 0.0
2018-Jan-11 05:56N 01°16' E 103°47'0 0.0
2018-Jan-11 05:29N 01°16' E 103°47'0 0.0
2018-Jan-11 04:56N 01°16' E 103°47'0 0.0
2018-Jan-11 04:29N 01°16' E 103°47'0 0.0
2018-Jan-11 03:53N 01°16' E 103°47'0 0.0
2018-Jan-11 03:29N 01°16' E 103°47'0 0.0
2018-Jan-11 02:56N 01°16' E 103°47'0 0.0
2018-Jan-11 02:29N 01°16' E 103°47'0 0.0
2018-Jan-11 01:56N 01°16' E 103°47'0 0.0
2018-Jan-11 01:29N 01°16' E 103°47'0 0.0
2018-Jan-11 00:56N 01°16' E 103°47'0 0.0
2018-Jan-11 00:23N 01°16' E 103°47'0 0.0
2018-Jan-10 23:56N 01°16' E 103°47'0 0.0
2018-Jan-10 23:29N 01°16' E 103°47'0 0.0
2018-Jan-10 22:56N 01°16' E 103°47'0 0.0
2018-Jan-10 22:23N 01°16' E 103°47'0 0.0
2018-Jan-10 21:56N 01°16' E 103°47'0 0.0
2018-Jan-10 21:29N 01°16' E 103°47'0 0.0
2018-Jan-10 20:56N 01°16' E 103°47'0 0.0
2018-Jan-10 20:29N 01°16' E 103°47'0 0.0
2018-Jan-10 19:56N 01°16' E 103°47'0 0.0
2018-Jan-10 19:29N 01°16' E 103°47'0 0.0
2018-Jan-10 19:01N 01°16' E 103°47'1 1.3
2018-Jan-10 18:30N 01°16' E 103°47'2 4.5
2018-Jan-10 17:59N 01°14' E 103°47'4 9.0
2018-Jan-10 17:31N 01°13' E 103°52'4 7.7
2018-Jan-10 16:58N 01°14' E 103°55'3 5.5
2018-Jan-10 16:26N 01°15' E 103°58'3 5.5
2018-Jan-10 15:58N 01°16' E 104°01'3 7.2
2018-Jan-10 15:29N 01°16' E 104°04'4 7.3
2018-Jan-10 14:55N 01°17' E 104°08'3 7.1
2018-Jan-10 14:30N 01°17' E 104°11'2 4.4
2018-Jan-10 13:59N 01°17' E 104°13'1 2.3
2018-Jan-10 13:28N 01°17' E 104°15'1 2.0
2018-Jan-10 12:49N 01°18' E 104°16'5 2.6
2018-Jan-10 10:59N 01°19' E 104°20'4 8.1
2018-Jan-10 10:28N 01°22' E 104°23'  
Track history (hours):
 
Tides and Currents Weather Stations Pressure Air Temp Water Temp Dewpoint Dewpoint Depression Visibility Wind Speed Wind Dir Waves Ship Positions

YM Moderation

Last reported at 2018-Jan-12 01:03 UTC. Time now 2018-Jan-21 06:57 UTC.
Position N 01°18' E 103°19'.
Warning: this ship's position is 9 days out of date.

Length 293 m; draft 11.7 m.

Type: Cargo ship. MMSI: 371633000.

Date/timePositionNaut miles runAvg speedWind from/ knotsBaromVisibWave heightAir tempDewpointWater temp
2018-Jan-12 01:03N 01°18' E 103°19'219.5
2018-Jan-12 00:57N 01°17' E 103°21'919.1
2018-Jan-12 00:29N 01°12' E 103°28'817.4
2018-Jan-12 00:00N 01°12' E 103°37'4 8.4
2018-Jan-11 23:30N 01°13' E 103°41'510.0
2018-Jan-11 23:00N 01°16' E 103°45'2 4.3
2018-Jan-11 22:30N 01°16' E 103°47'0 0.6
2018-Jan-11 21:56N 01°16' E 103°47'0 0.0
2018-Jan-11 21:26N 01°16' E 103°47'0 0.0
2018-Jan-11 20:50N 01°16' E 103°47'0 0.0
2018-Jan-11 20:26N 01°16' E 103°47'0 0.0
2018-Jan-11 19:50N 01°16' E 103°47'0 0.0
2018-Jan-11 19:29N 01°16' E 103°47'0 0.0
2018-Jan-11 18:56N 01°16' E 103°47'0 0.0
2018-Jan-11 18:29N 01°16' E 103°47'0 0.0
2018-Jan-11 17:56N 01°16' E 103°47'0 0.0
2018-Jan-11 17:29N 01°16' E 103°47'0 0.0
2018-Jan-11 16:56N 01°16' E 103°47'0 0.0
2018-Jan-11 16:26N 01°16' E 103°47'0 0.0
2018-Jan-11 15:56N 01°16' E 103°47'0 0.0
2018-Jan-11 15:26N 01°16' E 103°47'0 0.0
2018-Jan-11 14:56N 01°16' E 103°47'0 0.1
2018-Jan-11 14:29N 01°16' E 103°47'0 0.1
2018-Jan-11 13:53N 01°16' E 103°47'0 0.0
2018-Jan-11 13:29N 01°16' E 103°47'0 0.0
2018-Jan-11 12:50N 01°16' E 103°47'0 0.0
2018-Jan-11 12:26N 01°16' E 103°47'0 0.0
2018-Jan-11 11:53N 01°16' E 103°47'0 0.0
2018-Jan-11 11:11N 01°16' E 103°47'0 0.0
2018-Jan-11 10:56N 01°16' E 103°47'0 0.0
2018-Jan-11 10:26N 01°16' E 103°47'0 0.0
2018-Jan-11 09:53N 01°16' E 103°47'0 0.0
2018-Jan-11 09:29N 01°16' E 103°47'0 0.0
2018-Jan-11 08:56N 01°16' E 103°47'0 0.0
2018-Jan-11 08:29N 01°16' E 103°47'0 0.0
2018-Jan-11 07:53N 01°16' E 103°47'0 0.0
2018-Jan-11 07:29N 01°16' E 103°47'0 0.0
2018-Jan-11 06:56N 01°16' E 103°47'0 0.0
2018-Jan-11 06:29N 01°16' E 103°47'0 0.0
2018-Jan-11 05:56N 01°16' E 103°47'0 0.0
2018-Jan-11 05:29N 01°16' E 103°47'0 0.0
2018-Jan-11 04:56N 01°16' E 103°47'0 0.0
2018-Jan-11 04:29N 01°16' E 103°47'0 0.0
2018-Jan-11 03:53N 01°16' E 103°47'0 0.0
2018-Jan-11 03:29N 01°16' E 103°47'0 0.0
2018-Jan-11 02:56N 01°16' E 103°47'0 0.0
2018-Jan-11 02:29N 01°16' E 103°47'0 0.0
2018-Jan-11 01:56N 01°16' E 103°47'0 0.0
2018-Jan-11 01:29N 01°16' E 103°47'0 0.0
2018-Jan-11 00:56N 01°16' E 103°47'0 0.0
2018-Jan-11 00:23N 01°16' E 103°47'0 0.0
2018-Jan-10 23:56N 01°16' E 103°47'0 0.0
2018-Jan-10 23:29N 01°16' E 103°47'0 0.0
2018-Jan-10 22:56N 01°16' E 103°47'0 0.0
2018-Jan-10 22:23N 01°16' E 103°47'0 0.0
2018-Jan-10 21:56N 01°16' E 103°47'0 0.0
2018-Jan-10 21:29N 01°16' E 103°47'0 0.0
2018-Jan-10 20:56N 01°16' E 103°47'0 0.0
2018-Jan-10 20:29N 01°16' E 103°47'0 0.0
2018-Jan-10 19:56N 01°16' E 103°47'0 0.0
2018-Jan-10 19:29N 01°16' E 103°47'0 0.0
2018-Jan-10 19:01N 01°16' E 103°47'1 1.3
2018-Jan-10 18:30N 01°16' E 103°47'2 4.5
2018-Jan-10 17:59N 01°14' E 103°47'4 9.0
2018-Jan-10 17:31N 01°13' E 103°52'4 7.7
2018-Jan-10 16:58N 01°14' E 103°55'3 5.5
2018-Jan-10 16:26N 01°15' E 103°58'3 5.5
2018-Jan-10 15:58N 01°16' E 104°01'3 7.2
2018-Jan-10 15:29N 01°16' E 104°04'4 7.3
2018-Jan-10 14:55N 01°17' E 104°08'3 7.1
2018-Jan-10 14:30N 01°17' E 104°11'2 4.4
2018-Jan-10 13:59N 01°17' E 104°13'1 2.3
2018-Jan-10 13:28N 01°17' E 104°15'1 2.0
2018-Jan-10 12:49N 01°18' E 104°16'5 2.6
2018-Jan-10 10:59N 01°19' E 104°20'4 8.1
2018-Jan-10 10:28N 01°22' E 104°23'  

Dump ship's entire track history